createdAt,value
2022-07-28T00:01:44.262Z,97774.06
2022-07-28T00:04:13.368Z,97774.75
2022-07-28T00:06:43.182Z,97788.06
2022-07-28T00:09:12.406Z,97784.22
2022-07-28T00:11:51.440Z,97790.72
2022-07-28T00:14:25.033Z,97788.19
2022-07-28T00:16:53.972Z,97790.47
2022-07-28T00:19:23.554Z,97792.25
2022-07-28T00:21:52.540Z,97794.19
2022-07-28T00:24:21.753Z,97793.47
2022-07-28T00:26:50.533Z,97784.72
2022-07-28T00:29:19.912Z,97789.50
2022-07-28T00:31:49.700Z,97795.84
2022-07-28T00:34:18.978Z,97799.47
2022-07-28T00:36:47.960Z,97798.63
2022-07-28T00:39:18.301Z,97798.63
2022-07-28T00:41:48.106Z,97803.91
2022-07-28T00:44:17.276Z,97797.66
2022-07-28T00:46:46.867Z,97808.41
2022-07-28T00:49:16.899Z,97808.72
2022-07-28T00:51:46.223Z,97813.41
2022-07-28T00:54:15.532Z,97820.38
2022-07-28T00:56:44.979Z,97824.31
2022-07-28T00:59:13.915Z,97818.91
2022-07-28T01:01:43.159Z,97825.72
2022-07-28T01:04:12.854Z,97824.88
2022-07-28T01:06:54.090Z,97822.56
2022-07-28T01:09:56.865Z,97822.47
2022-07-28T01:12:39.306Z,97826.97
2022-07-28T01:15:16.956Z,97833.50
2022-07-28T01:18:03.757Z,97834.66
2022-07-28T01:20:45.682Z,97842.22
2022-07-28T01:23:32.913Z,97841.56
2022-07-28T01:26:07.651Z,97850.22
2022-07-28T01:29:00.601Z,97851.22
2022-07-28T01:31:40.624Z,97856.81
2022-07-28T01:34:18.701Z,97863.00
2022-07-28T01:36:58.792Z,97869.47
2022-07-28T01:39:33.952Z,97866.22
2022-07-28T01:42:07.019Z,97875.38
2022-07-28T01:44:42.699Z,97886.88
2022-07-28T01:47:12.717Z,97885.09
2022-07-28T01:49:45.278Z,97901.16
2022-07-28T01:52:15.475Z,97899.53
2022-07-28T01:54:47.252Z,97911.13
2022-07-28T01:57:19.578Z,97911.84
2022-07-28T01:59:50.338Z,97918.34
2022-07-28T02:02:23.309Z,97919.03
2022-07-28T02:04:53.695Z,97917.72
2022-07-28T02:07:25.223Z,97924.78
2022-07-28T02:09:56.188Z,97929.75
2022-07-28T02:12:27.737Z,97938.56
2022-07-28T02:14:59.579Z,97941.66
2022-07-28T02:17:31.728Z,97936.56
2022-07-28T02:20:02.368Z,97938.09
2022-07-28T02:22:32.729Z,97932.44
2022-07-28T02:25:02.620Z,97925.53
2022-07-28T02:27:42.993Z,97929.06
2022-07-28T02:30:18.060Z,97924.44
2022-07-28T02:32:58.917Z,97924.22
2022-07-28T02:35:48.902Z,97925.34
2022-07-28T02:38:41.664Z,97930.03
2022-07-28T02:41:19.917Z,97944.78
2022-07-28T02:43:50.993Z,97932.41
2022-07-28T02:46:28.408Z,97942.09
2022-07-28T02:49:04.523Z,97938.88
2022-07-28T02:51:36.018Z,97929.50
2022-07-28T02:54:07.700Z,97935.00
2022-07-28T02:56:37.483Z,97927.19
2022-07-28T02:59:07.211Z,97928.88
2022-07-28T03:01:36.236Z,97930.09
2022-07-28T03:04:05.747Z,97928.34
2022-07-28T03:06:34.801Z,97925.78
2022-07-28T03:09:04.033Z,97920.03
2022-07-28T03:11:36.056Z,97917.22
2022-07-28T03:14:04.923Z,97914.47
2022-07-28T03:16:33.894Z,97910.44
2022-07-28T03:19:03.006Z,97907.44
2022-07-28T03:21:31.697Z,97918.88
2022-07-28T03:24:01.616Z,97924.47
2022-07-28T03:26:42.321Z,97927.28
2022-07-28T03:29:13.099Z,97939.81
2022-07-28T03:31:43.626Z,97935.34
2022-07-28T03:34:16.271Z,97941.00
2022-07-28T03:36:50.960Z,97944.56
2022-07-28T03:39:20.277Z,97944.16
2022-07-28T03:41:49.640Z,97935.06
2022-07-28T03:44:28.112Z,97927.81
2022-07-28T03:46:58.332Z,97930.34
2022-07-28T03:49:27.280Z,97933.66
2022-07-28T03:51:56.253Z,97932.03
2022-07-28T03:54:25.025Z,97945.44
2022-07-28T03:56:54.195Z,97945.00
2022-07-28T03:59:23.184Z,97948.81
2022-07-28T04:01:53.924Z,97951.25
2022-07-28T04:04:23.247Z,97946.72
2022-07-28T04:06:52.880Z,97945.16
2022-07-28T04:09:26.241Z,97942.78
2022-07-28T04:11:55.299Z,97951.16
2022-07-28T04:14:24.716Z,97952.13
2022-07-28T04:16:53.998Z,97953.25
2022-07-28T04:19:23.055Z,97952.41
2022-07-28T04:21:52.021Z,97957.16
2022-07-28T04:24:21.140Z,97952.00
2022-07-28T04:26:49.892Z,97957.44
2022-07-28T04:29:23.274Z,97969.28
2022-07-28T04:31:56.116Z,97972.63
2022-07-28T04:34:25.551Z,97974.16
2022-07-28T04:36:56.538Z,97979.47
2022-07-28T04:39:25.750Z,97979.72
2022-07-28T04:41:54.548Z,97984.47
2022-07-28T04:44:23.687Z,97986.81
2022-07-28T04:46:52.401Z,97983.63
2022-07-28T04:49:21.334Z,97983.50
2022-07-28T04:51:53.691Z,97973.75
2022-07-28T04:54:27.459Z,97984.06
2022-07-28T04:56:56.609Z,97978.06
2022-07-28T04:59:25.422Z,97975.97
2022-07-28T05:01:58.504Z,97986.56
2022-07-28T05:04:28.830Z,97999.81
2022-07-28T05:06:58.515Z,97991.75
2022-07-28T05:09:27.911Z,97990.19
2022-07-28T05:11:56.775Z,97999.25
2022-07-28T05:14:26.609Z,97998.00
2022-07-28T05:16:56.309Z,97994.50
2022-07-28T05:19:25.448Z,97989.09
2022-07-28T05:21:55.189Z,97995.91
2022-07-28T05:24:25.172Z,98005.66
2022-07-28T05:26:54.107Z,98003.72
2022-07-28T05:29:23.089Z,98002.47
2022-07-28T05:31:52.200Z,98005.38
2022-07-28T05:34:21.370Z,98009.03
2022-07-28T05:36:51.244Z,98022.28
2022-07-28T05:39:20.359Z,98023.25
2022-07-28T05:41:49.322Z,98024.81
2022-07-28T05:44:18.268Z,98024.97
2022-07-28T05:46:47.582Z,98026.59
2022-07-28T05:49:16.759Z,98021.44
2022-07-28T05:51:45.707Z,98028.25
2022-07-28T05:54:15.466Z,98031.31
2022-07-28T05:56:49.845Z,98021.56
2022-07-28T05:59:19.402Z,98034.69
2022-07-28T06:01:48.951Z,98033.97
2022-07-28T06:04:26.080Z,98031.31
2022-07-28T06:06:57.279Z,98037.47
2022-07-28T06:09:26.511Z,98041.13
2022-07-28T06:11:55.438Z,98049.19
2022-07-28T06:14:24.312Z,98047.81
2022-07-28T06:16:53.688Z,98045.03
2022-07-28T06:19:22.818Z,98051.28
2022-07-28T06:21:56.226Z,98042.09
2022-07-28T06:24:25.566Z,98037.63
2022-07-28T06:26:55.053Z,98035.25
2022-07-28T06:29:25.464Z,98026.63
2022-07-28T06:31:55.963Z,98024.25
2022-07-28T06:34:25.500Z,98024.94
2022-07-28T06:36:56.260Z,98026.03
2022-07-28T06:39:28.507Z,98027.13
2022-07-28T06:41:57.887Z,98022.78
2022-07-28T06:44:48.312Z,98015.94
2022-07-28T06:47:16.761Z,98018.63
2022-07-28T06:49:46.336Z,98016.50
2022-07-28T06:52:15.654Z,98007.16
2022-07-28T06:54:48.746Z,98004.34
2022-07-28T06:57:22.034Z,98008.47
2022-07-28T07:02:55.131Z,98005.75
2022-07-28T07:05:24.889Z,97999.72
2022-07-28T07:07:54.113Z,98003.69
2022-07-28T07:10:24.438Z,98010.03
2022-07-28T07:12:54.174Z,98004.97
2022-07-28T07:15:23.525Z,98007.25
2022-07-28T07:17:58.670Z,97998.91
2022-07-28T07:20:27.850Z,98004.22
2022-07-28T07:22:57.461Z,97990.50
2022-07-28T07:25:27.805Z,97984.34
2022-07-28T07:27:57.717Z,97982.94
2022-07-28T07:30:28.124Z,97974.91
2022-07-28T07:32:59.306Z,97968.19
2022-07-28T07:35:28.930Z,97967.59
2022-07-28T07:38:00.054Z,97964.56
2022-07-28T07:40:29.784Z,97963.19
2022-07-28T07:42:59.424Z,97954.84
2022-07-28T07:45:29.887Z,97955.91
2022-07-28T07:48:00.857Z,97958.66
2022-07-28T07:50:31.277Z,97963.84
2022-07-28T07:53:02.152Z,97957.50
2022-07-28T07:55:37.527Z,97957.53
2022-07-28T07:58:08.238Z,97959.75
2022-07-28T08:00:37.921Z,97957.28
2022-07-28T08:03:11.176Z,97962.47
2022-07-28T08:05:43.152Z,97967.91
2022-07-28T08:08:12.773Z,97957.66
2022-07-28T08:10:43.329Z,97946.44
2022-07-28T08:13:12.787Z,97945.84
2022-07-28T08:15:42.610Z,97931.50
2022-07-28T08:18:13.500Z,97918.94
2022-07-28T08:20:45.206Z,97919.47
2022-07-28T08:23:14.565Z,97920.25
2022-07-28T08:25:45.532Z,97902.34
2022-07-28T08:28:14.801Z,97899.59
2022-07-28T08:30:43.870Z,97902.72
2022-07-28T08:33:13.452Z,97891.72
2022-07-28T08:35:42.793Z,97887.56
2022-07-28T08:38:13.875Z,97877.31
2022-07-28T08:40:47.280Z,97871.59
2022-07-28T08:43:32.394Z,97881.06
2022-07-28T08:46:02.921Z,97868.94
2022-07-28T08:48:34.973Z,97855.44
2022-07-28T08:51:10.412Z,97856.41
2022-07-28T08:53:42.369Z,97857.66
2022-07-28T08:56:15.584Z,97849.84
2022-07-28T08:58:45.145Z,97856.13
2022-07-28T09:01:14.473Z,97844.56
2022-07-28T09:03:44.087Z,97845.94
2022-07-28T09:06:13.710Z,97842.22
2022-07-28T09:08:43.828Z,97846.63
2022-07-28T09:11:13.755Z,97845.13
2022-07-28T09:13:43.404Z,97835.06
2022-07-28T09:16:16.368Z,97834.69
2022-07-28T09:18:46.115Z,97829.22
2022-07-28T09:21:16.433Z,97818.44
2022-07-28T09:23:50.728Z,97795.09
2022-07-28T09:26:20.227Z,97799.69
2022-07-28T09:28:58.064Z,97798.50
2022-07-28T09:31:29.616Z,97784.59
2022-07-28T09:34:04.282Z,97790.75
2022-07-28T09:36:41.226Z,97792.06
2022-07-28T09:39:10.607Z,97797.06
2022-07-28T09:41:50.999Z,97793.78
2022-07-28T09:44:21.938Z,97787.91
2022-07-28T09:46:52.157Z,97779.22
2022-07-28T09:49:26.458Z,97780.75
2022-07-28T09:52:03.316Z,97773.81
2022-07-28T09:54:37.383Z,97771.63
2022-07-28T09:57:12.732Z,97772.13
2022-07-28T09:59:51.975Z,97763.69
2022-07-28T10:02:30.587Z,97774.56
2022-07-28T10:05:02.521Z,97764.19
2022-07-28T10:07:32.242Z,97770.22
2022-07-28T10:10:08.600Z,97779.69
2022-07-28T10:12:39.405Z,97766.44
2022-07-28T10:15:51.059Z,97766.28
2022-07-28T10:18:22.263Z,97774.16
2022-07-28T10:20:52.364Z,97779.38
2022-07-28T10:23:22.742Z,97780.38
2022-07-28T10:25:54.348Z,97789.66
2022-07-28T10:28:24.917Z,97783.84
2022-07-28T10:30:59.733Z,97783.34
2022-07-28T10:33:33.237Z,97777.97
2022-07-28T10:36:03.924Z,97782.19
2022-07-28T10:38:36.986Z,97770.63
2022-07-28T10:41:10.104Z,97760.09
2022-07-28T10:43:42.897Z,97757.81
2022-07-28T10:46:16.597Z,97749.88
2022-07-28T10:48:46.601Z,97750.94
2022-07-28T10:51:16.132Z,97748.31
2022-07-28T10:53:57.605Z,97727.97
2022-07-28T10:56:58.926Z,97713.75
2022-07-28T10:59:48.627Z,97706.47
2022-07-28T11:02:47.187Z,97698.97
2022-07-28T11:05:40.188Z,97694.13
2022-07-28T11:08:11.698Z,97695.47
2022-07-28T11:10:56.217Z,97702.00
2022-07-28T11:13:37.000Z,97701.63
2022-07-28T11:16:16.866Z,97698.84
2022-07-28T11:19:40.161Z,97681.84
2022-07-28T11:22:22.648Z,97677.06
2022-07-28T11:24:58.795Z,97678.53
2022-07-28T11:27:42.912Z,97682.22
2022-07-28T11:30:34.649Z,97672.38
2022-07-28T11:33:05.533Z,97673.19
2022-07-28T11:35:40.888Z,97674.34
2022-07-28T11:38:12.638Z,97677.19
2022-07-28T11:40:50.375Z,97679.47
2022-07-28T11:43:36.661Z,97683.00
2022-07-28T11:46:10.253Z,97687.66
2022-07-28T11:48:43.102Z,97684.47
2022-07-28T11:51:13.684Z,97684.41
2022-07-28T11:53:46.062Z,97685.72
2022-07-28T11:56:17.669Z,97685.72
2022-07-28T11:58:46.864Z,97700.91
2022-07-28T12:01:17.387Z,97701.41
2022-07-28T12:03:55.653Z,97706.78
2022-07-28T12:06:29.495Z,97708.28
2022-07-28T12:09:03.920Z,97695.03
2022-07-28T12:11:35.391Z,97694.91
2022-07-28T12:14:10.290Z,97693.56
2022-07-28T12:16:44.727Z,97698.13
2022-07-28T12:19:17.732Z,97695.19
2022-07-28T12:21:49.229Z,97693.97
2022-07-28T12:24:28.789Z,97708.03
2022-07-28T12:27:01.468Z,97708.31
2022-07-28T12:29:36.167Z,97711.31
2022-07-28T12:32:13.682Z,97712.16
2022-07-28T12:34:44.508Z,97710.94
2022-07-28T12:37:15.637Z,97710.19
2022-07-28T12:39:47.102Z,97711.03
2022-07-28T12:42:16.268Z,97707.44
2022-07-28T12:44:52.281Z,97697.72
2022-07-28T12:47:29.243Z,97708.34
2022-07-28T12:50:15.142Z,97713.31
2022-07-28T12:52:46.778Z,97723.06
2022-07-28T12:55:28.213Z,97727.53
2022-07-28T12:57:57.317Z,97731.75
2022-07-28T13:00:29.424Z,97739.72
2022-07-28T13:03:00.396Z,97735.94
2022-07-28T13:05:59.452Z,97740.25
2022-07-28T13:08:45.270Z,97750.81
2022-07-28T13:14:05.877Z,97758.44
2022-07-28T13:16:35.282Z,97777.41
2022-07-28T13:19:06.679Z,97781.84
2022-07-28T13:21:58.151Z,97780.00
2022-07-28T13:24:30.032Z,97788.66
2022-07-28T13:27:00.361Z,97790.78
2022-07-28T13:29:29.463Z,97790.09
2022-07-28T13:31:58.564Z,97789.69
2022-07-28T13:34:27.818Z,97791.38
2022-07-28T13:36:58.162Z,97794.72
2022-07-28T13:39:27.132Z,97804.75
2022-07-28T13:41:59.091Z,97807.78
2022-07-28T13:44:33.048Z,97825.53
2022-07-28T13:47:03.119Z,97825.09
2022-07-28T13:49:38.451Z,97842.22
2022-07-28T13:52:13.296Z,97840.41
2022-07-28T13:54:42.933Z,97837.66
2022-07-28T13:57:13.389Z,97835.97
2022-07-28T13:59:44.600Z,97829.44
2022-07-28T14:02:14.968Z,97833.72
2022-07-28T14:04:49.984Z,97840.00
2022-07-28T14:07:21.435Z,97830.25
2022-07-28T14:09:51.962Z,97833.97
2022-07-28T14:12:20.987Z,97833.97
2022-07-28T14:14:50.624Z,97849.19
2022-07-28T14:17:44.203Z,97854.59
2022-07-28T14:20:14.977Z,97852.94
2022-07-28T14:22:46.472Z,97862.97
2022-07-28T14:25:20.696Z,97877.00
2022-07-28T14:27:51.829Z,97889.41
2022-07-28T14:30:22.693Z,97878.00
2022-07-28T14:32:51.539Z,97881.19
2022-07-28T14:35:20.749Z,97883.84
2022-07-28T14:40:40.157Z,97874.06
2022-07-28T14:43:10.439Z,97887.72
2022-07-28T14:46:12.373Z,97887.44
2022-07-28T14:48:29.121Z,97888.69
2022-07-28T14:51:00.103Z,97880.03
2022-07-28T14:53:29.307Z,97873.38
2022-07-28T14:55:58.479Z,97869.88
2022-07-28T14:58:27.642Z,97876.00
2022-07-28T15:00:56.872Z,97878.44
2022-07-28T15:03:36.049Z,97886.06
2022-07-28T15:06:05.690Z,97879.94
2022-07-28T15:08:34.717Z,97871.84
2022-07-28T15:11:03.780Z,97860.34
2022-07-28T15:13:33.113Z,97869.78
2022-07-28T15:16:02.414Z,97884.81
2022-07-28T15:18:31.476Z,97885.38
2022-07-28T15:21:00.675Z,97890.19
2022-07-28T15:23:29.637Z,97878.22
2022-07-28T15:25:59.204Z,97871.09
2022-07-28T15:28:29.699Z,97873.91
2022-07-28T15:30:58.933Z,97882.06
2022-07-28T15:33:28.171Z,97873.16
2022-07-28T15:36:01.913Z,97872.50
2022-07-28T15:38:31.955Z,97886.53
2022-07-28T15:41:01.097Z,97887.72
2022-07-28T15:43:31.375Z,97884.16
2022-07-28T15:46:06.139Z,97898.34
2022-07-28T15:48:35.623Z,97906.84
2022-07-28T15:51:04.835Z,97902.59
2022-07-28T15:53:34.161Z,97905.09
2022-07-28T15:56:05.192Z,97897.06
2022-07-28T15:58:34.677Z,97894.03
2022-07-28T16:01:03.889Z,97897.94
2022-07-28T16:03:33.136Z,97893.31
2022-07-28T16:06:02.638Z,97896.50
2022-07-28T16:08:31.853Z,97886.22
2022-07-28T16:11:01.044Z,97891.97
2022-07-28T16:13:36.328Z,97893.16
2022-07-28T16:16:08.962Z,97898.28
2022-07-28T16:18:42.952Z,97904.50
2022-07-28T16:21:12.884Z,97898.06
2022-07-28T16:23:41.892Z,97898.69
2022-07-28T16:26:11.603Z,97894.31
2022-07-28T16:28:40.762Z,97901.53
2022-07-28T16:31:09.996Z,97904.94
2022-07-28T16:33:39.103Z,97907.56
2022-07-28T16:36:08.314Z,97903.97
2022-07-28T16:38:37.645Z,97904.88
2022-07-28T16:41:06.820Z,97907.00
2022-07-28T16:43:37.437Z,97912.84
2022-07-28T16:46:07.655Z,97913.13
2022-07-28T16:48:36.925Z,97910.28
2022-07-28T16:51:05.962Z,97901.88
2022-07-28T16:53:35.735Z,97899.22
2022-07-28T16:56:05.233Z,97898.59
2022-07-28T16:58:34.637Z,97900.19
2022-07-28T17:01:03.624Z,97904.94
2022-07-28T17:03:32.489Z,97897.28
2022-07-28T17:06:01.627Z,97898.22
2022-07-28T17:08:30.650Z,97901.66
2022-07-28T17:10:59.648Z,97900.88
2022-07-28T17:13:29.598Z,97905.31
2022-07-28T17:16:00.648Z,97899.22
2022-07-28T17:18:30.231Z,97906.47
2022-07-28T17:20:59.089Z,97907.31
2022-07-28T17:23:28.085Z,97915.50
2022-07-28T17:26:35.506Z,97919.56
2022-07-28T17:28:46.348Z,97914.16
2022-07-28T17:31:15.998Z,97914.88
2022-07-28T17:33:45.231Z,97916.97
2022-07-28T17:36:14.358Z,97927.09
2022-07-28T17:38:44.328Z,97922.38
2022-07-28T17:41:13.496Z,97918.81
2022-07-28T17:43:45.496Z,97921.78
2022-07-28T17:46:15.076Z,97920.66
2022-07-28T17:48:44.283Z,97912.75
2022-07-28T17:51:13.395Z,97909.56
2022-07-28T17:53:45.184Z,97913.69
2022-07-28T17:56:14.665Z,97905.59
2022-07-28T17:58:43.906Z,97912.03
2022-07-28T18:01:15.079Z,97899.53
2022-07-28T18:03:56.425Z,97892.56
2022-07-28T18:06:30.606Z,97896.00
2022-07-28T18:09:06.248Z,97885.97
2022-07-28T18:11:55.580Z,97871.38
2022-07-28T18:14:30.599Z,97868.88
2022-07-28T18:17:00.716Z,97878.44
2022-07-28T18:19:30.437Z,97884.13
2022-07-28T18:21:59.448Z,97889.16
2022-07-28T18:24:28.946Z,97882.09
2022-07-28T18:26:58.491Z,97879.81
2022-07-28T18:29:38.280Z,97876.81
2022-07-28T18:32:10.072Z,97882.72
2022-07-28T18:34:41.318Z,97878.53
2022-07-28T18:37:10.527Z,97881.78
2022-07-28T18:39:40.264Z,97876.47
2022-07-28T18:42:09.369Z,97871.06
2022-07-28T18:44:39.080Z,97874.13
2022-07-28T18:47:10.782Z,97869.53
2022-07-28T18:49:39.862Z,97870.63
2022-07-28T18:52:08.910Z,97870.19
2022-07-28T18:54:37.924Z,97871.63
2022-07-28T18:57:09.497Z,97870.81
2022-07-28T18:59:43.873Z,97875.97
2022-07-28T19:02:18.500Z,97876.50
2022-07-28T19:04:48.427Z,97881.03
2022-07-28T19:07:17.599Z,97867.63
2022-07-28T19:09:46.645Z,97872.03
2022-07-28T19:12:16.266Z,97870.59
2022-07-28T19:14:45.114Z,97876.69
2022-07-28T19:17:14.254Z,97865.72
2022-07-28T19:19:43.152Z,97869.34
2022-07-28T19:22:12.166Z,97867.22
2022-07-28T19:24:42.060Z,97869.66
2022-07-28T19:27:12.628Z,97862.19
2022-07-28T19:29:41.847Z,97862.25
2022-07-28T19:32:10.833Z,97861.78
2022-07-28T19:34:39.800Z,97859.94
2022-07-28T19:37:08.868Z,97872.94
2022-07-28T19:39:46.188Z,97867.41
2022-07-28T19:42:15.445Z,97864.38
2022-07-28T19:44:46.598Z,97868.81
2022-07-28T19:47:15.613Z,97870.34
2022-07-28T19:49:45.083Z,97861.03
2022-07-28T19:52:14.252Z,97863.91
2022-07-28T19:54:43.231Z,97864.59
2022-07-28T19:57:20.613Z,97864.97
2022-07-28T19:59:49.744Z,97867.00
2022-07-28T20:02:18.765Z,97861.34
2022-07-28T20:04:47.887Z,97858.47
2022-07-28T20:07:16.951Z,97858.78
2022-07-28T20:09:46.266Z,97854.78
2022-07-28T20:12:15.261Z,97860.31
2022-07-28T20:14:45.015Z,97854.88
2022-07-28T20:17:35.580Z,97860.13
2022-07-28T20:20:03.409Z,97860.06
2022-07-28T20:22:32.304Z,97860.97
2022-07-28T20:25:01.289Z,97856.84
2022-07-28T20:27:30.538Z,97850.28
2022-07-28T20:30:00.158Z,97845.38
2022-07-28T20:32:29.379Z,97841.84
2022-07-28T20:34:59.140Z,97837.09
2022-07-28T20:37:37.310Z,97841.25
2022-07-28T20:40:08.999Z,97835.16
2022-07-28T20:42:38.427Z,97838.50
2022-07-28T20:45:09.119Z,97838.03
2022-07-28T20:47:38.166Z,97838.97
2022-07-28T20:50:07.878Z,97839.50
2022-07-28T20:52:37.387Z,97837.09
2022-07-28T20:55:06.891Z,97836.72
2022-07-28T20:57:36.248Z,97842.28
2022-07-28T21:00:07.787Z,97834.66
2022-07-28T21:02:37.909Z,97814.13
2022-07-28T21:05:08.002Z,97819.16
2022-07-28T21:08:04.685Z,97820.00
2022-07-28T21:10:35.982Z,97815.28
2022-07-28T21:13:05.375Z,97816.25
2022-07-28T21:15:34.344Z,97816.97
2022-07-28T21:18:03.312Z,97811.91
2022-07-28T21:20:32.528Z,97814.72
2022-07-28T21:23:01.837Z,97809.19
2022-07-28T21:25:34.852Z,97808.22
2022-07-28T21:28:22.390Z,97804.69
2022-07-28T21:30:51.572Z,97805.66
2022-07-28T21:33:22.960Z,97798.81
2022-07-28T21:35:52.515Z,97799.59
2022-07-28T21:38:22.755Z,97799.66
2022-07-28T21:40:51.891Z,97794.75
2022-07-28T21:43:21.068Z,97799.66
2022-07-28T21:45:50.216Z,97794.25
2022-07-28T21:48:21.214Z,97792.84
2022-07-28T21:50:50.707Z,97795.56
2022-07-28T21:53:20.123Z,97793.50
2022-07-28T21:55:49.574Z,97792.91
2022-07-28T21:58:19.117Z,97787.44
2022-07-28T22:00:48.183Z,97786.47
2022-07-28T22:03:17.519Z,97785.09
2022-07-28T22:08:32.889Z,97777.13
2022-07-28T22:11:02.962Z,97772.28
2022-07-28T22:13:32.043Z,97771.06
2022-07-28T22:16:01.268Z,97771.53
2022-07-28T22:18:30.247Z,97769.22
2022-07-28T22:20:59.464Z,97771.91
2022-07-28T22:23:29.761Z,97771.06
2022-07-28T22:25:59.381Z,97773.44
2022-07-28T22:28:29.993Z,97768.38
2022-07-28T22:31:09.161Z,97770.63
2022-07-28T22:33:39.671Z,97768.91
2022-07-28T22:36:12.466Z,97762.25
2022-07-28T22:38:41.502Z,97751.31
2022-07-28T22:41:10.897Z,97764.28
2022-07-28T22:43:40.085Z,97762.66
2022-07-28T22:46:11.307Z,97759.19
2022-07-28T22:48:40.692Z,97760.53
2022-07-28T22:51:14.000Z,97760.06
2022-07-28T22:53:43.654Z,97753.72
2022-07-28T22:56:13.157Z,97747.22
2022-07-28T22:58:42.249Z,97749.97
2022-07-28T23:01:11.585Z,97752.75
2022-07-28T23:03:41.451Z,97756.09
2022-07-28T23:06:11.639Z,97756.66
2022-07-28T23:08:40.759Z,97756.22
2022-07-28T23:11:09.873Z,97750.44
2022-07-28T23:13:39.127Z,97738.75
2022-07-28T23:16:12.298Z,97744.69
2022-07-28T23:18:42.644Z,97746.38
2022-07-28T23:21:12.960Z,97746.94
2022-07-28T23:23:42.211Z,97745.25
2022-07-28T23:26:11.245Z,97742.50
2022-07-28T23:28:40.450Z,97740.78
2022-07-28T23:31:09.599Z,97738.28
2022-07-28T23:33:55.140Z,97729.16
2022-07-28T23:36:27.753Z,97737.22
2022-07-28T23:38:58.945Z,97734.84
2022-07-28T23:41:28.959Z,97731.91
2022-07-28T23:43:58.264Z,97724.94
2022-07-28T23:46:27.416Z,97726.47
2022-07-28T23:48:56.639Z,97731.59
2022-07-28T23:51:33.443Z,97731.38
2022-07-28T23:54:15.974Z,97737.56
2022-07-28T23:56:45.556Z,97731.28
2022-07-28T23:59:14.931Z,97728.22
